sensor_id;sensor_type;location;lat;lon;timestamp;temperature;humidity
35613;DHT22;22054;51.646;7.078;2023-07-13T00:01:52;17.70;99.90
35613;DHT22;22054;51.646;7.078;2023-07-13T00:04:20;17.70;99.90
35613;DHT22;22054;51.646;7.078;2023-07-13T00:06:51;17.70;99.90
35613;DHT22;22054;51.646;7.078;2023-07-13T00:09:18;17.60;99.90
35613;DHT22;22054;51.646;7.078;2023-07-13T00:11:45;17.50;99.90
35613;DHT22;22054;51.646;7.078;2023-07-13T00:14:15;17.60;99.90
35613;DHT22;22054;51.646;7.078;2023-07-13T00:16:41;17.90;99.90
35613;DHT22;22054;51.646;7.078;2023-07-13T00:19:10;18.00;99.90
35613;DHT22;22054;51.646;7.078;2023-07-13T00:21:37;17.70;99.90
35613;DHT22;22054;51.646;7.078;2023-07-13T00:24:05;17.70;99.90
35613;DHT22;22054;51.646;7.078;2023-07-13T00:26:31;17.70;99.90
35613;DHT22;22054;51.646;7.078;2023-07-13T00:28:58;17.60;99.90
35613;DHT22;22054;51.646;7.078;2023-07-13T00:31:24;17.60;99.90
35613;DHT22;22054;51.646;7.078;2023-07-13T00:33:51;17.60;99.90
35613;DHT22;22054;51.646;7.078;2023-07-13T00:36:17;17.50;99.90
35613;DHT22;22054;51.646;7.078;2023-07-13T00:38:43;17.60;99.90
35613;DHT22;22054;51.646;7.078;2023-07-13T00:41:09;17.60;99.90
35613;DHT22;22054;51.646;7.078;2023-07-13T00:43:37;17.60;99.90
35613;DHT22;22054;51.646;7.078;2023-07-13T00:46:22;17.60;99.90
35613;DHT22;22054;51.646;7.078;2023-07-13T00:48:54;17.60;99.90
35613;DHT22;22054;51.646;7.078;2023-07-13T00:51:25;17.60;99.90
35613;DHT22;22054;51.646;7.078;2023-07-13T00:53:57;17.60;99.90
35613;DHT22;22054;51.646;7.078;2023-07-13T00:56:24;17.60;99.90
35613;DHT22;22054;51.646;7.078;2023-07-13T00:58:50;17.70;99.90
35613;DHT22;22054;51.646;7.078;2023-07-13T01:01:16;17.60;99.90
35613;DHT22;22054;51.646;7.078;2023-07-13T01:03:42;17.50;99.90
35613;DHT22;22054;51.646;7.078;2023-07-13T01:06:08;17.60;99.90
35613;DHT22;22054;51.646;7.078;2023-07-13T01:08:33;17.60;99.90
35613;DHT22;22054;51.646;7.078;2023-07-13T01:10:59;17.60;99.90
35613;DHT22;22054;51.646;7.078;2023-07-13T01:13:25;17.40;99.90
35613;DHT22;22054;51.646;7.078;2023-07-13T01:15:52;17.60;99.90
35613;DHT22;22054;51.646;7.078;2023-07-13T01:18:23;17.40;99.90
35613;DHT22;22054;51.646;7.078;2023-07-13T01:20:59;17.40;99.90
35613;DHT22;22054;51.646;7.078;2023-07-13T01:23:28;17.40;99.90
35613;DHT22;22054;51.646;7.078;2023-07-13T01:25:55;17.40;99.90
35613;DHT22;22054;51.646;7.078;2023-07-13T01:28:23;17.30;99.90
35613;DHT22;22054;51.646;7.078;2023-07-13T01:30:53;17.30;99.90
35613;DHT22;22054;51.646;7.078;2023-07-13T01:33:20;17.10;99.90
35613;DHT22;22054;51.646;7.078;2023-07-13T01:35:46;17.10;99.90
35613;DHT22;22054;51.646;7.078;2023-07-13T01:38:15;17.20;99.90
35613;DHT22;22054;51.646;7.078;2023-07-13T01:40:43;17.30;99.90
35613;DHT22;22054;51.646;7.078;2023-07-13T01:43:09;17.10;99.90
35613;DHT22;22054;51.646;7.078;2023-07-13T01:45:34;17.10;99.90
35613;DHT22;22054;51.646;7.078;2023-07-13T01:48:00;17.00;99.90
35613;DHT22;22054;51.646;7.078;2023-07-13T01:50:26;17.30;99.90
35613;DHT22;22054;51.646;7.078;2023-07-13T01:52:53;17.00;99.90
35613;DHT22;22054;51.646;7.078;2023-07-13T01:55:19;17.00;99.90
35613;DHT22;22054;51.646;7.078;2023-07-13T01:57:45;16.90;99.90
35613;DHT22;22054;51.646;7.078;2023-07-13T02:00:12;16.90;99.90
35613;DHT22;22054;51.646;7.078;2023-07-13T02:02:39;16.80;99.90
35613;DHT22;22054;51.646;7.078;2023-07-13T02:05:05;16.80;99.90
35613;DHT22;22054;51.646;7.078;2023-07-13T02:07:32;16.80;99.90
35613;DHT22;22054;51.646;7.078;2023-07-13T02:09:58;16.80;99.90
35613;DHT22;22054;51.646;7.078;2023-07-13T02:12:23;16.80;99.90
35613;DHT22;22054;51.646;7.078;2023-07-13T02:14:49;16.80;99.90
35613;DHT22;22054;51.646;7.078;2023-07-13T02:17:15;16.80;99.90
35613;DHT22;22054;51.646;7.078;2023-07-13T02:19:41;16.80;99.90
35613;DHT22;22054;51.646;7.078;2023-07-13T02:22:06;16.90;99.90
35613;DHT22;22054;51.646;7.078;2023-07-13T02:24:32;16.80;99.90
35613;DHT22;22054;51.646;7.078;2023-07-13T02:26:58;16.90;99.90
35613;DHT22;22054;51.646;7.078;2023-07-13T02:29:24;16.90;99.90
35613;DHT22;22054;51.646;7.078;2023-07-13T02:31:49;16.80;99.90
35613;DHT22;22054;51.646;7.078;2023-07-13T02:34:15;16.80;99.90
35613;DHT22;22054;51.646;7.078;2023-07-13T02:36:41;16.80;99.90
35613;DHT22;22054;51.646;7.078;2023-07-13T02:39:13;16.80;99.90
35613;DHT22;22054;51.646;7.078;2023-07-13T02:41:39;16.80;99.90
35613;DHT22;22054;51.646;7.078;2023-07-13T02:44:04;16.80;99.90
35613;DHT22;22054;51.646;7.078;2023-07-13T02:46:35;16.80;99.90
35613;DHT22;22054;51.646;7.078;2023-07-13T02:49:02;16.80;99.90
35613;DHT22;22054;51.646;7.078;2023-07-13T02:51:28;16.70;99.90
35613;DHT22;22054;51.646;7.078;2023-07-13T02:53:54;16.70;99.90
35613;DHT22;22054;51.646;7.078;2023-07-13T02:56:24;16.60;99.90
35613;DHT22;22054;51.646;7.078;2023-07-13T02:58:52;16.70;99.90
35613;DHT22;22054;51.646;7.078;2023-07-13T03:01:17;16.60;99.90
35613;DHT22;22054;51.646;7.078;2023-07-13T03:03:45;16.60;99.90
35613;DHT22;22054;51.646;7.078;2023-07-13T03:06:12;16.50;99.90
35613;DHT22;22054;51.646;7.078;2023-07-13T03:08:39;16.40;99.90
35613;DHT22;22054;51.646;7.078;2023-07-13T03:11:08;16.40;99.90
35613;DHT22;22054;51.646;7.078;2023-07-13T03:13:36;16.40;99.90
35613;DHT22;22054;51.646;7.078;2023-07-13T03:16:03;16.30;99.90
35613;DHT22;22054;51.646;7.078;2023-07-13T03:18:30;16.30;99.90
35613;DHT22;22054;51.646;7.078;2023-07-13T03:20:55;16.30;99.90
35613;DHT22;22054;51.646;7.078;2023-07-13T03:23:22;16.40;99.90
35613;DHT22;22054;51.646;7.078;2023-07-13T03:25:48;16.40;99.90
35613;DHT22;22054;51.646;7.078;2023-07-13T03:28:15;16.10;99.90
35613;DHT22;22054;51.646;7.078;2023-07-13T03:30:41;16.40;99.90
35613;DHT22;22054;51.646;7.078;2023-07-13T03:33:08;16.30;99.90
35613;DHT22;22054;51.646;7.078;2023-07-13T03:35:34;16.30;99.90
35613;DHT22;22054;51.646;7.078;2023-07-13T03:38:00;16.40;99.90
35613;DHT22;22054;51.646;7.078;2023-07-13T03:40:27;16.50;99.90
35613;DHT22;22054;51.646;7.078;2023-07-13T03:42:53;16.40;99.90
35613;DHT22;22054;51.646;7.078;2023-07-13T03:45:19;16.40;99.90
35613;DHT22;22054;51.646;7.078;2023-07-13T03:47:45;16.40;99.90
35613;DHT22;22054;51.646;7.078;2023-07-13T03:50:11;16.40;99.90
35613;DHT22;22054;51.646;7.078;2023-07-13T03:52:37;16.50;99.90
35613;DHT22;22054;51.646;7.078;2023-07-13T03:55:03;16.60;99.90
35613;DHT22;22054;51.646;7.078;2023-07-13T03:57:29;16.50;99.90
35613;DHT22;22054;51.646;7.078;2023-07-13T03:59:55;16.60;99.90
35613;DHT22;22054;51.646;7.078;2023-07-13T04:02:20;16.50;99.90
35613;DHT22;22054;51.646;7.078;2023-07-13T04:04:47;16.70;99.90
35613;DHT22;22054;51.646;7.078;2023-07-13T04:07:12;16.70;99.90
35613;DHT22;22054;51.646;7.078;2023-07-13T04:09:38;16.90;99.90
35613;DHT22;22054;51.646;7.078;2023-07-13T04:12:04;16.90;99.90
35613;DHT22;22054;51.646;7.078;2023-07-13T04:14:30;16.90;99.90
35613;DHT22;22054;51.646;7.078;2023-07-13T04:16:56;16.90;99.90
35613;DHT22;22054;51.646;7.078;2023-07-13T04:19:23;17.10;99.90
35613;DHT22;22054;51.646;7.078;2023-07-13T04:21:49;17.00;99.90
35613;DHT22;22054;51.646;7.078;2023-07-13T04:24:14;17.00;99.90
35613;DHT22;22054;51.646;7.078;2023-07-13T04:26:40;17.00;99.90
35613;DHT22;22054;51.646;7.078;2023-07-13T04:29:07;17.00;99.90
35613;DHT22;22054;51.646;7.078;2023-07-13T04:31:33;16.90;99.90
35613;DHT22;22054;51.646;7.078;2023-07-13T04:33:59;17.00;99.90
35613;DHT22;22054;51.646;7.078;2023-07-13T04:36:25;16.90;99.90
35613;DHT22;22054;51.646;7.078;2023-07-13T04:38:54;16.90;99.90
35613;DHT22;22054;51.646;7.078;2023-07-13T04:41:21;17.00;99.90
35613;DHT22;22054;51.646;7.078;2023-07-13T04:43:47;17.00;99.90
35613;DHT22;22054;51.646;7.078;2023-07-13T04:46:15;16.90;99.90
35613;DHT22;22054;51.646;7.078;2023-07-13T04:48:43;16.90;99.90
35613;DHT22;22054;51.646;7.078;2023-07-13T04:51:09;17.10;99.90
35613;DHT22;22054;51.646;7.078;2023-07-13T04:53:35;17.10;99.90
35613;DHT22;22054;51.646;7.078;2023-07-13T04:56:02;17.10;99.90
35613;DHT22;22054;51.646;7.078;2023-07-13T04:58:28;17.10;99.90
35613;DHT22;22054;51.646;7.078;2023-07-13T05:01:00;17.10;99.90
35613;DHT22;22054;51.646;7.078;2023-07-13T05:03:26;17.10;99.90
35613;DHT22;22054;51.646;7.078;2023-07-13T05:05:59;17.20;99.90
35613;DHT22;22054;51.646;7.078;2023-07-13T05:08:27;17.10;99.90
35613;DHT22;22054;51.646;7.078;2023-07-13T05:10:52;17.10;99.90
35613;DHT22;22054;51.646;7.078;2023-07-13T05:13:18;17.10;99.90
35613;DHT22;22054;51.646;7.078;2023-07-13T05:15:44;17.10;99.90
35613;DHT22;22054;51.646;7.078;2023-07-13T05:18:10;17.20;99.90
35613;DHT22;22054;51.646;7.078;2023-07-13T05:20:36;17.10;99.90
35613;DHT22;22054;51.646;7.078;2023-07-13T05:23:02;17.00;99.90
35613;DHT22;22054;51.646;7.078;2023-07-13T05:25:28;17.00;99.90
35613;DHT22;22054;51.646;7.078;2023-07-13T05:27:54;17.10;99.90
35613;DHT22;22054;51.646;7.078;2023-07-13T05:30:20;17.10;99.90
35613;DHT22;22054;51.646;7.078;2023-07-13T05:32:45;17.40;99.90
35613;DHT22;22054;51.646;7.078;2023-07-13T05:35:11;17.30;99.90
35613;DHT22;22054;51.646;7.078;2023-07-13T05:37:37;17.20;99.90
35613;DHT22;22054;51.646;7.078;2023-07-13T05:40:03;17.00;99.90
35613;DHT22;22054;51.646;7.078;2023-07-13T05:42:29;17.00;99.90
35613;DHT22;22054;51.646;7.078;2023-07-13T05:44:56;17.10;99.90
35613;DHT22;22054;51.646;7.078;2023-07-13T05:47:22;17.10;99.90
35613;DHT22;22054;51.646;7.078;2023-07-13T05:49:48;17.10;99.90
35613;DHT22;22054;51.646;7.078;2023-07-13T05:52:14;17.20;99.90
35613;DHT22;22054;51.646;7.078;2023-07-13T05:54:39;17.30;99.90
35613;DHT22;22054;51.646;7.078;2023-07-13T05:57:05;17.30;99.90
35613;DHT22;22054;51.646;7.078;2023-07-13T05:59:31;17.30;99.90
35613;DHT22;22054;51.646;7.078;2023-07-13T06:01:57;17.20;99.90
35613;DHT22;22054;51.646;7.078;2023-07-13T06:04:22;17.30;99.90
35613;DHT22;22054;51.646;7.078;2023-07-13T06:06:48;17.30;99.90
35613;DHT22;22054;51.646;7.078;2023-07-13T06:09:14;17.50;99.90
35613;DHT22;22054;51.646;7.078;2023-07-13T06:11:40;17.40;99.90
35613;DHT22;22054;51.646;7.078;2023-07-13T06:14:06;17.40;99.90
35613;DHT22;22054;51.646;7.078;2023-07-13T06:16:31;17.60;99.90
35613;DHT22;22054;51.646;7.078;2023-07-13T06:18:57;17.60;99.90
35613;DHT22;22054;51.646;7.078;2023-07-13T06:21:23;17.60;99.90
35613;DHT22;22054;51.646;7.078;2023-07-13T06:23:51;17.70;99.90
35613;DHT22;22054;51.646;7.078;2023-07-13T06:26:19;17.90;99.90
35613;DHT22;22054;51.646;7.078;2023-07-13T06:28:46;18.10;99.90
35613;DHT22;22054;51.646;7.078;2023-07-13T06:31:13;18.00;99.90
35613;DHT22;22054;51.646;7.078;2023-07-13T06:33:39;18.10;99.90
35613;DHT22;22054;51.646;7.078;2023-07-13T06:36:06;18.20;99.90
35613;DHT22;22054;51.646;7.078;2023-07-13T06:38:33;18.40;99.90
35613;DHT22;22054;51.646;7.078;2023-07-13T06:40:59;18.30;99.90
35613;DHT22;22054;51.646;7.078;2023-07-13T06:43:25;18.30;99.90
35613;DHT22;22054;51.646;7.078;2023-07-13T06:45:54;18.40;99.90
35613;DHT22;22054;51.646;7.078;2023-07-13T06:48:20;18.50;99.90
35613;DHT22;22054;51.646;7.078;2023-07-13T06:50:47;18.40;99.90
35613;DHT22;22054;51.646;7.078;2023-07-13T06:53:14;18.30;99.90
35613;DHT22;22054;51.646;7.078;2023-07-13T06:55:40;18.60;99.90
35613;DHT22;22054;51.646;7.078;2023-07-13T06:58:06;18.50;99.90
35613;DHT22;22054;51.646;7.078;2023-07-13T07:00:32;18.70;99.90
35613;DHT22;22054;51.646;7.078;2023-07-13T07:02:58;18.90;99.90
35613;DHT22;22054;51.646;7.078;2023-07-13T07:05:24;19.10;99.90
35613;DHT22;22054;51.646;7.078;2023-07-13T07:07:50;19.10;99.90
35613;DHT22;22054;51.646;7.078;2023-07-13T07:10:17;19.20;99.90
35613;DHT22;22054;51.646;7.078;2023-07-13T07:12:44;19.40;99.90
35613;DHT22;22054;51.646;7.078;2023-07-13T07:15:10;19.50;99.90
35613;DHT22;22054;51.646;7.078;2023-07-13T07:17:36;19.80;99.90
35613;DHT22;22054;51.646;7.078;2023-07-13T07:20:02;19.60;99.90
35613;DHT22;22054;51.646;7.078;2023-07-13T07:22:29;19.70;99.90
35613;DHT22;22054;51.646;7.078;2023-07-13T07:24:56;19.80;99.90
35613;DHT22;22054;51.646;7.078;2023-07-13T07:27:22;20.00;99.90
35613;DHT22;22054;51.646;7.078;2023-07-13T07:29:48;20.10;99.90
35613;DHT22;22054;51.646;7.078;2023-07-13T07:32:14;20.30;99.90
35613;DHT22;22054;51.646;7.078;2023-07-13T07:34:40;20.60;99.90
35613;DHT22;22054;51.646;7.078;2023-07-13T07:37:06;20.50;99.90
35613;DHT22;22054;51.646;7.078;2023-07-13T07:39:32;20.60;99.90
35613;DHT22;22054;51.646;7.078;2023-07-13T07:41:58;20.70;99.90
35613;DHT22;22054;51.646;7.078;2023-07-13T07:44:25;20.40;99.90
35613;DHT22;22054;51.646;7.078;2023-07-13T07:46:52;20.10;99.90
35613;DHT22;22054;51.646;7.078;2023-07-13T07:49:18;20.10;99.90
35613;DHT22;22054;51.646;7.078;2023-07-13T07:51:44;20.10;99.90
35613;DHT22;22054;51.646;7.078;2023-07-13T07:54:09;20.00;99.90
35613;DHT22;22054;51.646;7.078;2023-07-13T07:56:35;20.00;99.90
35613;DHT22;22054;51.646;7.078;2023-07-13T07:59:01;19.90;99.90
35613;DHT22;22054;51.646;7.078;2023-07-13T08:01:27;19.90;99.90
35613;DHT22;22054;51.646;7.078;2023-07-13T08:03:53;20.00;99.90
35613;DHT22;22054;51.646;7.078;2023-07-13T08:06:18;20.10;99.90
35613;DHT22;22054;51.646;7.078;2023-07-13T08:08:45;20.20;99.90
35613;DHT22;22054;51.646;7.078;2023-07-13T08:11:11;20.30;99.90
35613;DHT22;22054;51.646;7.078;2023-07-13T08:13:43;20.30;99.90
35613;DHT22;22054;51.646;7.078;2023-07-13T08:16:09;20.30;99.90
35613;DHT22;22054;51.646;7.078;2023-07-13T08:18:34;20.40;99.90
35613;DHT22;22054;51.646;7.078;2023-07-13T08:21:07;20.40;99.90
35613;DHT22;22054;51.646;7.078;2023-07-13T08:23:35;20.40;99.90
35613;DHT22;22054;51.646;7.078;2023-07-13T08:26:01;20.30;99.90
35613;DHT22;22054;51.646;7.078;2023-07-13T08:28:28;20.40;99.90
35613;DHT22;22054;51.646;7.078;2023-07-13T08:30:54;20.50;99.90
35613;DHT22;22054;51.646;7.078;2023-07-13T08:33:22;20.80;99.90
35613;DHT22;22054;51.646;7.078;2023-07-13T08:35:51;20.60;99.90
35613;DHT22;22054;51.646;7.078;2023-07-13T08:38:18;20.30;99.90
35613;DHT22;22054;51.646;7.078;2023-07-13T08:40:45;20.30;99.90
35613;DHT22;22054;51.646;7.078;2023-07-13T08:43:19;20.30;99.90
35613;DHT22;22054;51.646;7.078;2023-07-13T08:48:52;20.40;99.90
35613;DHT22;22054;51.646;7.078;2023-07-13T08:57:46;21.30;99.90
35613;DHT22;22054;51.646;7.078;2023-07-13T09:00:16;21.10;99.90
35613;DHT22;22054;51.646;7.078;2023-07-13T09:02:56;20.90;99.90
35613;DHT22;22054;51.646;7.078;2023-07-13T09:05:45;21.00;99.90
35613;DHT22;22054;51.646;7.078;2023-07-13T09:11:33;21.80;99.90
35613;DHT22;22054;51.646;7.078;2023-07-13T09:20:31;21.40;99.90
35613;DHT22;22054;51.646;7.078;2023-07-13T09:23:03;21.40;99.90
35613;DHT22;22054;51.646;7.078;2023-07-13T09:25:34;21.20;99.90
35613;DHT22;22054;51.646;7.078;2023-07-13T09:33:29;21.60;99.90
35613;DHT22;22054;51.646;7.078;2023-07-13T09:35:57;21.60;99.90
35613;DHT22;22054;51.646;7.078;2023-07-13T09:38:25;21.70;99.90
35613;DHT22;22054;51.646;7.078;2023-07-13T09:41:39;21.90;99.90
35613;DHT22;22054;51.646;7.078;2023-07-13T09:44:13;22.10;99.90
35613;DHT22;22054;51.646;7.078;2023-07-13T09:46:46;21.80;99.90
35613;DHT22;22054;51.646;7.078;2023-07-13T09:49:17;21.80;99.90
35613;DHT22;22054;51.646;7.078;2023-07-13T09:51:44;21.80;99.90
35613;DHT22;22054;51.646;7.078;2023-07-13T09:54:24;21.70;99.90
35613;DHT22;22054;51.646;7.078;2023-07-13T09:57:11;21.50;99.90
35613;DHT22;22054;51.646;7.078;2023-07-13T09:59:47;21.50;99.90
35613;DHT22;22054;51.646;7.078;2023-07-13T10:02:28;22.20;99.90
35613;DHT22;22054;51.646;7.078;2023-07-13T10:07:31;22.80;99.90
35613;DHT22;22054;51.646;7.078;2023-07-13T10:10:00;22.70;99.90
35613;DHT22;22054;51.646;7.078;2023-07-13T10:12:29;22.50;99.90
35613;DHT22;22054;51.646;7.078;2023-07-13T10:15:00;22.60;99.90
35613;DHT22;22054;51.646;7.078;2023-07-13T10:17:31;22.90;99.90
35613;DHT22;22054;51.646;7.078;2023-07-13T10:20:03;23.00;99.90
35613;DHT22;22054;51.646;7.078;2023-07-13T10:22:49;23.00;99.90
35613;DHT22;22054;51.646;7.078;2023-07-13T10:25:20;22.90;99.90
35613;DHT22;22054;51.646;7.078;2023-07-13T10:27:51;22.90;99.90
35613;DHT22;22054;51.646;7.078;2023-07-13T10:30:27;22.90;99.90
35613;DHT22;22054;51.646;7.078;2023-07-13T10:33:02;22.80;99.90
35613;DHT22;22054;51.646;7.078;2023-07-13T10:35:30;22.60;99.90
35613;DHT22;22054;51.646;7.078;2023-07-13T10:38:11;22.70;99.90
35613;DHT22;22054;51.646;7.078;2023-07-13T10:41:17;22.80;99.90
35613;DHT22;22054;51.646;7.078;2023-07-13T10:43:45;22.80;99.90
35613;DHT22;22054;51.646;7.078;2023-07-13T10:46:17;22.80;99.90
35613;DHT22;22054;51.646;7.078;2023-07-13T10:48:47;23.20;99.90
35613;DHT22;22054;51.646;7.078;2023-07-13T10:51:18;23.70;99.90
35613;DHT22;22054;51.646;7.078;2023-07-13T10:54:10;23.90;99.90
35613;DHT22;22054;51.646;7.078;2023-07-13T10:56:46;23.50;99.90
35613;DHT22;22054;51.646;7.078;2023-07-13T10:59:25;23.40;99.90
35613;DHT22;22054;51.646;7.078;2023-07-13T11:02:32;23.30;99.90
35613;DHT22;22054;51.646;7.078;2023-07-13T11:05:42;23.00;99.90
35613;DHT22;22054;51.646;7.078;2023-07-13T11:08:32;23.00;99.90
35613;DHT22;22054;51.646;7.078;2023-07-13T11:10:59;22.80;99.90
35613;DHT22;22054;51.646;7.078;2023-07-13T11:25:01;23.40;99.90
35613;DHT22;22054;51.646;7.078;2023-07-13T11:27:46;23.40;99.90
35613;DHT22;22054;51.646;7.078;2023-07-13T11:38:42;26.60;99.90
35613;DHT22;22054;51.646;7.078;2023-07-13T11:41:22;27.20;99.90
35613;DHT22;22054;51.646;7.078;2023-07-13T11:44:16;27.80;96.90
35613;DHT22;22054;51.646;7.078;2023-07-13T11:49:25;27.60;96.90
35613;DHT22;22054;51.646;7.078;2023-07-13T11:52:01;28.00;94.80
35613;DHT22;22054;51.646;7.078;2023-07-13T11:54:33;27.90;93.20
35613;DHT22;22054;51.646;7.078;2023-07-13T11:57:15;27.80;92.00
35613;DHT22;22054;51.646;7.078;2023-07-13T11:59:55;28.50;91.00
35613;DHT22;22054;51.646;7.078;2023-07-13T12:02:29;28.10;92.00
35613;DHT22;22054;51.646;7.078;2023-07-13T12:04:58;27.80;89.80
35613;DHT22;22054;51.646;7.078;2023-07-13T12:07:29;27.40;90.30
35613;DHT22;22054;51.646;7.078;2023-07-13T12:10:23;27.40;90.20
35613;DHT22;22054;51.646;7.078;2023-07-13T12:13:08;28.00;89.00
35613;DHT22;22054;51.646;7.078;2023-07-13T12:15:37;27.50;86.10
35613;DHT22;22054;51.646;7.078;2023-07-13T12:18:14;29.00;87.00
35613;DHT22;22054;51.646;7.078;2023-07-13T12:20:43;30.20;81.30
35613;DHT22;22054;51.646;7.078;2023-07-13T12:23:28;30.80;77.40
35613;DHT22;22054;51.646;7.078;2023-07-13T12:25:57;31.00;75.20
35613;DHT22;22054;51.646;7.078;2023-07-13T12:31:01;31.10;68.80
35613;DHT22;22054;51.646;7.078;2023-07-13T12:33:31;30.30;71.60
35613;DHT22;22054;51.646;7.078;2023-07-13T12:36:00;30.90;71.00
35613;DHT22;22054;51.646;7.078;2023-07-13T12:38:29;30.70;72.00
35613;DHT22;22054;51.646;7.078;2023-07-13T12:40:56;32.00;69.20
35613;DHT22;22054;51.646;7.078;2023-07-13T12:43:23;32.70;64.60
35613;DHT22;22054;51.646;7.078;2023-07-13T12:46:02;31.80;64.80
35613;DHT22;22054;51.646;7.078;2023-07-13T12:48:42;30.50;67.60
35613;DHT22;22054;51.646;7.078;2023-07-13T12:51:14;28.80;73.00
35613;DHT22;22054;51.646;7.078;2023-07-13T12:53:49;27.50;76.50
35613;DHT22;22054;51.646;7.078;2023-07-13T12:56:21;26.60;82.10
35613;DHT22;22054;51.646;7.078;2023-07-13T12:58:49;25.80;83.40
35613;DHT22;22054;51.646;7.078;2023-07-13T13:01:21;25.40;86.90
35613;DHT22;22054;51.646;7.078;2023-07-13T13:04:04;24.90;91.60
35613;DHT22;22054;51.646;7.078;2023-07-13T13:06:40;23.60;99.90
35613;DHT22;22054;51.646;7.078;2023-07-13T13:09:17;22.60;99.90
35613;DHT22;22054;51.646;7.078;2023-07-13T13:11:45;22.00;99.90
35613;DHT22;22054;51.646;7.078;2023-07-13T13:14:11;21.40;99.90
35613;DHT22;22054;51.646;7.078;2023-07-13T13:16:48;21.00;99.90
35613;DHT22;22054;51.646;7.078;2023-07-13T13:19:18;20.20;99.90
35613;DHT22;22054;51.646;7.078;2023-07-13T13:21:47;19.30;99.90
35613;DHT22;22054;51.646;7.078;2023-07-13T13:24:17;18.60;99.90
35613;DHT22;22054;51.646;7.078;2023-07-13T13:26:46;18.40;99.90
35613;DHT22;22054;51.646;7.078;2023-07-13T13:29:23;17.80;99.90
35613;DHT22;22054;51.646;7.078;2023-07-13T13:31:50;17.70;99.90
35613;DHT22;22054;51.646;7.078;2023-07-13T13:34:22;17.50;99.90
35613;DHT22;22054;51.646;7.078;2023-07-13T13:36:53;17.40;99.90
35613;DHT22;22054;51.646;7.078;2023-07-13T13:39:28;17.40;99.90
35613;DHT22;22054;51.646;7.078;2023-07-13T13:49:43;17.80;99.90
35613;DHT22;22054;51.646;7.078;2023-07-13T13:52:09;17.80;99.90
35613;DHT22;22054;51.646;7.078;2023-07-13T13:54:35;17.90;99.90
35613;DHT22;22054;51.646;7.078;2023-07-13T13:57:05;17.90;99.90
35613;DHT22;22054;51.646;7.078;2023-07-13T13:59:57;18.10;99.90
35613;DHT22;22054;51.646;7.078;2023-07-13T14:02:47;18.10;99.90
35613;DHT22;22054;51.646;7.078;2023-07-13T14:05:22;18.20;99.90
35613;DHT22;22054;51.646;7.078;2023-07-13T14:13:16;18.00;99.90
35613;DHT22;22054;51.646;7.078;2023-07-13T14:15:54;18.10;99.90
35613;DHT22;22054;51.646;7.078;2023-07-13T14:18:20;18.10;99.90
35613;DHT22;22054;51.646;7.078;2023-07-13T14:20:47;18.10;99.90
35613;DHT22;22054;51.646;7.078;2023-07-13T14:23:21;18.20;99.90
35613;DHT22;22054;51.646;7.078;2023-07-13T14:25:53;18.20;99.90
35613;DHT22;22054;51.646;7.078;2023-07-13T14:28:25;18.30;99.90
35613;DHT22;22054;51.646;7.078;2023-07-13T14:30:53;18.30;99.90
35613;DHT22;22054;51.646;7.078;2023-07-13T14:33:20;18.20;99.90
35613;DHT22;22054;51.646;7.078;2023-07-13T14:35:46;18.30;99.90
35613;DHT22;22054;51.646;7.078;2023-07-13T14:38:15;18.20;99.90
35613;DHT22;22054;51.646;7.078;2023-07-13T14:40:42;18.20;99.90
35613;DHT22;22054;51.646;7.078;2023-07-13T14:43:13;18.40;99.90
35613;DHT22;22054;51.646;7.078;2023-07-13T14:45:43;18.40;99.90
35613;DHT22;22054;51.646;7.078;2023-07-13T14:48:22;18.50;99.90
35613;DHT22;22054;51.646;7.078;2023-07-13T14:50:58;18.60;99.90
35613;DHT22;22054;51.646;7.078;2023-07-13T14:53:28;19.00;99.90
35613;DHT22;22054;51.646;7.078;2023-07-13T14:55:54;19.40;99.90
35613;DHT22;22054;51.646;7.078;2023-07-13T14:58:21;20.20;99.90
35613;DHT22;22054;51.646;7.078;2023-07-13T15:00:47;23.00;75.80
35613;DHT22;22054;51.646;7.078;2023-07-13T15:03:21;26.10;1.00
35613;DHT22;22054;51.646;7.078;2023-07-13T15:05:49;28.50;1.00
35613;DHT22;22054;51.646;7.078;2023-07-13T15:08:15;30.10;1.00
35613;DHT22;22054;51.646;7.078;2023-07-13T15:10:41;30.80;1.00
35613;DHT22;22054;51.646;7.078;2023-07-13T15:13:18;30.60;1.00
35613;DHT22;22054;51.646;7.078;2023-07-13T15:18:24;31.30;1.00
35613;DHT22;22054;51.646;7.078;2023-07-13T15:20:51;31.70;1.00
35613;DHT22;22054;51.646;7.078;2023-07-13T15:23:22;30.40;1.00
35613;DHT22;22054;51.646;7.078;2023-07-13T15:25:51;28.70;1.00
35613;DHT22;22054;51.646;7.078;2023-07-13T15:28:17;27.30;1.00
35613;DHT22;22054;51.646;7.078;2023-07-13T15:30:44;26.20;99.90
35613;DHT22;22054;51.646;7.078;2023-07-13T15:35:46;24.50;99.90
35613;DHT22;22054;51.646;7.078;2023-07-13T15:38:17;23.60;1.00
35613;DHT22;22054;51.646;7.078;2023-07-13T15:40:45;23.00;1.00
35613;DHT22;22054;51.646;7.078;2023-07-13T15:43:13;22.50;99.90
35613;DHT22;22054;51.646;7.078;2023-07-13T15:45:40;22.00;1.00
35613;DHT22;22054;51.646;7.078;2023-07-13T15:51:04;21.60;1.00
35613;DHT22;22054;51.646;7.078;2023-07-13T15:53:38;21.40;1.00
35613;DHT22;22054;51.646;7.078;2023-07-13T15:56:28;21.20;1.00
35613;DHT22;22054;51.646;7.078;2023-07-13T15:58:55;21.00;1.00
35613;DHT22;22054;51.646;7.078;2023-07-13T16:01:42;20.90;1.00
35613;DHT22;22054;51.646;7.078;2023-07-13T16:04:11;20.80;1.00
35613;DHT22;22054;51.646;7.078;2023-07-13T16:06:40;20.80;1.00
35613;DHT22;22054;51.646;7.078;2023-07-13T16:09:18;20.70;1.00
35613;DHT22;22054;51.646;7.078;2023-07-13T16:11:45;20.40;1.00
35613;DHT22;22054;51.646;7.078;2023-07-13T16:14:13;20.20;1.00
35613;DHT22;22054;51.646;7.078;2023-07-13T16:16:40;20.20;1.00
35613;DHT22;22054;51.646;7.078;2023-07-13T16:19:08;20.20;1.00
35613;DHT22;22054;51.646;7.078;2023-07-13T16:21:42;20.30;1.00
35613;DHT22;22054;51.646;7.078;2023-07-13T16:24:20;20.30;1.00
35613;DHT22;22054;51.646;7.078;2023-07-13T16:26:48;20.30;1.00
35613;DHT22;22054;51.646;7.078;2023-07-13T16:29:20;20.30;1.00
35613;DHT22;22054;51.646;7.078;2023-07-13T16:31:59;20.30;1.00
35613;DHT22;22054;51.646;7.078;2023-07-13T16:34:31;20.40;1.00
35613;DHT22;22054;51.646;7.078;2023-07-13T16:36:58;20.40;1.00
35613;DHT22;22054;51.646;7.078;2023-07-13T16:39:27;20.50;1.00
35613;DHT22;22054;51.646;7.078;2023-07-13T16:41:54;20.50;1.00
35613;DHT22;22054;51.646;7.078;2023-07-13T16:44:22;20.90;1.00
35613;DHT22;22054;51.646;7.078;2023-07-13T16:46:58;20.80;1.00
35613;DHT22;22054;51.646;7.078;2023-07-13T16:49:31;20.90;1.00
35613;DHT22;22054;51.646;7.078;2023-07-13T16:52:00;21.10;1.00
35613;DHT22;22054;51.646;7.078;2023-07-13T16:54:35;21.00;1.00
35613;DHT22;22054;51.646;7.078;2023-07-13T16:57:11;21.10;1.00
35613;DHT22;22054;51.646;7.078;2023-07-13T16:59:39;21.20;1.00
35613;DHT22;22054;51.646;7.078;2023-07-13T17:02:30;21.30;1.00